Time Latitude Longitude Accuracy (66% radius in meters) Altitude (meters) Speed (km/hour) Bearing (degrees) Battery (%) GPS flag
11:33:46 56.388356 43.735070 0 0 0 0 1 delete
11:33:45 56.388382 43.735070 0 0 0 0 1 delete
11:33:44 56.388415 43.735072 0 0 0 0 1 delete
11:33:43 56.388451 43.735080 0 0 0 0 1 delete
11:33:42 56.388481 43.735093 0 0 0 0 1 delete
11:33:41 56.388508 43.735108 0 0 0 0 1 delete
11:33:40 56.388528 43.735128 0 0 0 0 1 delete
11:33:39 56.388542 43.735159 0 0 0 0 1 delete
11:33:38 56.388554 43.735202 0 0 0 0 1 delete
11:33:37 56.388558 43.735262 0 0 0 0 1 delete
11:33:36 56.388557 43.735333 0 0 0 0 1 delete
11:33:35 56.388547 43.735410 0 0 0 0 1 delete
11:33:34 56.388540 43.735487 0 0 0 0 1 delete
11:33:33 56.388528 43.735562 0 0 0 0 1 delete
11:33:32 56.388515 43.735638 0 0 0 0 1 delete
11:33:31 56.388500 43.735713 0 0 0 0 1 delete
11:33:30 56.388486 43.735788 0 0 0 0 1 delete
11:33:29 56.388484 43.735875 0 0 0 0 1 delete
11:33:28 56.388476 43.735955 0 0 0 0 1 delete
11:33:27 56.388463 43.736021 0 0 0 0 1 delete
11:33:26 56.388433 43.736057 0 0 0 0 1 delete
11:33:25 56.388403 43.736080 0 0 0 0 1 delete
11:33:24 56.388377 43.736100 0 0 0 0 1 delete
11:33:23 56.388352 43.736119 0 0 0 0 1 delete
11:33:22 56.388325 43.736141 0 0 0 0 1 delete
11:33:21 56.388295 43.736165 0 0 0 0 1 delete
11:33:20 56.388260 43.736191 0 0 0 0 1 delete
11:33:19 56.388225 43.736218 0 0 0 0 1 delete
11:33:18 56.388188 43.736247 0 0 0 0 1 delete
11:33:17 56.388154 43.736277 0 0 0 0 1 delete
11:33:16 56.388119 43.736304 0 0 0 0 1 delete
11:33:15 56.388080 43.736327 0 0 0 0 1 delete
11:33:14 56.388037 43.736348 0 0 0 0 1 delete
11:33:13 56.387994 43.736369 0 0 0 0 1 delete
11:33:12 56.387949 43.736388 0 0 0 0 1 delete
11:33:11 56.387905 43.736412 0 0 0 0 1 delete
11:33:10 56.387858 43.736446 0 0 0 0 1 delete
11:33:09 56.387811 43.736482 0 0 0 0 1 delete
11:33:08 56.387769 43.736508 0 0 0 0 1 delete
11:33:07 56.387731 43.736514 0 0 0 0 1 delete
11:33:06 56.387695 43.736503 0 0 0 0 1 delete
11:33:05 56.387658 43.736476 0 0 0 0 1 delete
11:33:04 56.387620 43.736428 0 0 0 0 1 delete
11:33:03 56.387587 43.736367 0 0 0 0 1 delete
11:33:02 56.387554 43.736297 0 0 0 0 1 delete
11:33:01 56.387523 43.736229 0 0 0 0 1 delete
11:33:00 56.387492 43.736159 0 0 0 0 1 delete
11:32:59 56.387464 43.736089 0 0 0 0 1 delete
11:32:58 56.387435 43.736014 0 0 0 0 1 delete
11:32:57 56.387404 43.735937 0 0 0 0 1 delete